Killington, VT

2:53 PM EDT on August 26, 2016 (GMT -0400)
Belmont-Healdville Rd | | Change Station

Elev 2067 ft 43.41 °N, 72.80 °W | Updated 11 seconds ago

Mostly Cloudy
Mostly Cloudy
77.5 °F
Feels Like 79 °F
N
9.8
Wind Variable Wind from NW
Gusts 9.8 mph

Today
High -- | Low -- °F
--% Chance of Precip.
Yesterday
High -- | Low -- °F
Precip. -- in
Pressure 30.03 in
Visibility 10.0 miles
Clouds Few 3000 ft
Scattered Clouds 3800 ft
Mostly Cloudy 4800 ft
Heat Index 79 °F
Dew Point 68.6 °F
Humidity 74%
Rainfall 0.20 in
Snow Depth Not available.
6:08 AM 7:36 PM
Waning Crescent, 32% visible
METAR KRUT 261756Z AUTO 27007KT 10SM FEW030 SCT038 BKN048 27/19 A3000 RMK AO2 SLP167 60013 T02670194 10272 20206 53001 $
Pressure 30.03 in
Visibility 10.0 miles
Clouds Few 3000 ft
Scattered Clouds 3800 ft
Mostly Cloudy 4800 ft
Heat Index 79 °F
Dew Point 68.6 °F
Humidity 74%
Rainfall 0.20 in
Snow Depth Not available.
6:08 AM 7:36 PM
Waning Crescent, 32% visible
METAR KRUT 261756Z AUTO 27007KT 10SM FEW030 SCT038 BKN048 27/19 A3000 RMK AO2 SLP167 60013 T02670194 10272 20206 53001 $

10-Day Weather Forecast

Almanac

Astronomy

Aug. 26, 2016 Rise Set
Actual Time
Civil Twilight
Nautical Twilight
Astronomical Twilight
Moon
Length of Visible Light
Length of Day
Tomorrow will be .
, % of the Moon is Illuminated

Today's Extremes

State Highs State Lows

Community

WunderPhotos

Upload Photos

1,935,175 photos uploaded!

WunderBlog® & News

Nearby

Air Quality

  Air Quality AQ Index Pollutant
Not available.

Snow Depth

Station Depth Elevation

Earthquake Activity

City Distance Mag. Time & Date
Minimum magnitude displayed is 2.5.

Coastal Water Temperatures

Place Temperature

Stations

Nearby Weather Stations

Station Location Temp. Windchill Dew Point Humidity Wind Precip. Elev Updated Type
                   

Watches & Warnings

There are currently no watches in effect.